sensor_id;sensor_type;location;lat;lon;timestamp;P1;durP1;ratioP1;P2;durP2;ratioP2
74941;SDS011;63506;49.346;8.798;2024-02-21T00:02:17;8.45;;;3.17;;
74941;SDS011;63506;49.346;8.798;2024-02-21T00:05:01;8.45;;;3.13;;
74941;SDS011;63506;49.346;8.798;2024-02-21T00:07:47;11.77;;;3.33;;
74941;SDS011;63506;49.346;8.798;2024-02-21T00:10:32;13.30;;;3.38;;
74941;SDS011;63506;49.346;8.798;2024-02-21T00:13:19;13.82;;;3.75;;
74941;SDS011;63506;49.346;8.798;2024-02-21T00:16:04;10.23;;;3.55;;
74941;SDS011;63506;49.346;8.798;2024-02-21T00:18:48;12.00;;;3.20;;
74941;SDS011;63506;49.346;8.798;2024-02-21T00:21:32;10.50;;;4.00;;
74941;SDS011;63506;49.346;8.798;2024-02-21T00:24:21;13.25;;;3.42;;
74941;SDS011;63506;49.346;8.798;2024-02-21T00:27:08;9.07;;;3.08;;
74941;SDS011;63506;49.346;8.798;2024-02-21T00:29:55;7.88;;;3.17;;
74941;SDS011;63506;49.346;8.798;2024-02-21T00:32:41;9.20;;;3.60;;
74941;SDS011;63506;49.346;8.798;2024-02-21T00:35:26;8.77;;;3.67;;
74941;SDS011;63506;49.346;8.798;2024-02-21T00:38:10;12.57;;;3.85;;
74941;SDS011;63506;49.346;8.798;2024-02-21T00:40:59;7.30;;;3.15;;
74941;SDS011;63506;49.346;8.798;2024-02-21T00:43:43;7.05;;;3.38;;
74941;SDS011;63506;49.346;8.798;2024-02-21T00:46:35;8.40;;;3.08;;
74941;SDS011;63506;49.346;8.798;2024-02-21T00:49:22;11.38;;;3.63;;
74941;SDS011;63506;49.346;8.798;2024-02-21T00:52:06;11.38;;;3.22;;
74941;SDS011;63506;49.346;8.798;2024-02-21T00:54:55;8.40;;;3.25;;
74941;SDS011;63506;49.346;8.798;2024-02-21T00:57:39;4.72;;;2.75;;
74941;SDS011;63506;49.346;8.798;2024-02-21T01:00:23;9.38;;;4.10;;
74941;SDS011;63506;49.346;8.798;2024-02-21T01:03:13;8.75;;;3.13;;
74941;SDS011;63506;49.346;8.798;2024-02-21T01:05:59;7.13;;;3.28;;
74941;SDS011;63506;49.346;8.798;2024-02-21T01:08:44;10.00;;;3.17;;
74941;SDS011;63506;49.346;8.798;2024-02-21T01:11:35;8.07;;;3.25;;
74941;SDS011;63506;49.346;8.798;2024-02-21T01:14:21;9.75;;;3.13;;
74941;SDS011;63506;49.346;8.798;2024-02-21T01:17:11;9.20;;;3.40;;
74941;SDS011;63506;49.346;8.798;2024-02-21T01:20:00;8.95;;;3.42;;
74941;SDS011;63506;49.346;8.798;2024-02-21T01:22:49;8.43;;;3.33;;
74941;SDS011;63506;49.346;8.798;2024-02-21T01:25:35;11.60;;;3.65;;
74941;SDS011;63506;49.346;8.798;2024-02-21T01:28:19;8.82;;;3.25;;
74941;SDS011;63506;49.346;8.798;2024-02-21T01:31:06;13.63;;;4.10;;
74941;SDS011;63506;49.346;8.798;2024-02-21T01:33:53;8.10;;;3.25;;
74941;SDS011;63506;49.346;8.798;2024-02-21T01:36:43;12.20;;;4.00;;
74941;SDS011;63506;49.346;8.798;2024-02-21T01:39:30;9.05;;;3.97;;
74941;SDS011;63506;49.346;8.798;2024-02-21T01:42:17;9.90;;;3.22;;
74941;SDS011;63506;49.346;8.798;2024-02-21T01:45:04;9.23;;;3.03;;
74941;SDS011;63506;49.346;8.798;2024-02-21T01:47:52;8.95;;;3.38;;
74941;SDS011;63506;49.346;8.798;2024-02-21T01:50:39;7.15;;;3.05;;
74941;SDS011;63506;49.346;8.798;2024-02-21T01:53:30;13.65;;;3.92;;
74941;SDS011;63506;49.346;8.798;2024-02-21T01:56:18;7.00;;;3.85;;
74941;SDS011;63506;49.346;8.798;2024-02-21T01:59:03;7.78;;;3.25;;
74941;SDS011;63506;49.346;8.798;2024-02-21T02:01:50;9.10;;;3.13;;
74941;SDS011;63506;49.346;8.798;2024-02-21T02:04:39;9.75;;;3.72;;
74941;SDS011;63506;49.346;8.798;2024-02-21T02:07:24;11.27;;;3.50;;
74941;SDS011;63506;49.346;8.798;2024-02-21T02:10:13;11.43;;;3.67;;
74941;SDS011;63506;49.346;8.798;2024-02-21T02:13:00;12.68;;;3.22;;
74941;SDS011;63506;49.346;8.798;2024-02-21T02:15:47;6.53;;;3.08;;
74941;SDS011;63506;49.346;8.798;2024-02-21T02:18:35;6.85;;;3.20;;
74941;SDS011;63506;49.346;8.798;2024-02-21T02:21:23;6.05;;;3.10;;
74941;SDS011;63506;49.346;8.798;2024-02-21T02:24:18;8.80;;;3.83;;
74941;SDS011;63506;49.346;8.798;2024-02-21T02:27:03;7.63;;;3.78;;
74941;SDS011;63506;49.346;8.798;2024-02-21T02:29:52;7.68;;;3.33;;
74941;SDS011;63506;49.346;8.798;2024-02-21T02:32:39;8.40;;;3.40;;
74941;SDS011;63506;49.346;8.798;2024-02-21T02:35:25;8.23;;;3.03;;
74941;SDS011;63506;49.346;8.798;2024-02-21T02:38:10;7.25;;;3.03;;
74941;SDS011;63506;49.346;8.798;2024-02-21T02:40:56;14.82;;;4.47;;
74941;SDS011;63506;49.346;8.798;2024-02-21T02:43:41;9.50;;;3.28;;
74941;SDS011;63506;49.346;8.798;2024-02-21T02:46:28;5.32;;;3.13;;
74941;SDS011;63506;49.346;8.798;2024-02-21T02:49:14;12.77;;;3.75;;
74941;SDS011;63506;49.346;8.798;2024-02-21T02:52:01;9.35;;;2.92;;
74941;SDS011;63506;49.346;8.798;2024-02-21T02:54:48;11.40;;;3.65;;
74941;SDS011;63506;49.346;8.798;2024-02-21T02:57:38;7.90;;;2.90;;
74941;SDS011;63506;49.346;8.798;2024-02-21T03:00:25;10.95;;;3.88;;
74941;SDS011;63506;49.346;8.798;2024-02-21T03:03:14;9.20;;;3.25;;
74941;SDS011;63506;49.346;8.798;2024-02-21T03:06:01;9.00;;;3.42;;
74941;SDS011;63506;49.346;8.798;2024-02-21T03:08:49;11.75;;;3.42;;
74941;SDS011;63506;49.346;8.798;2024-02-21T03:11:38;10.57;;;3.28;;
74941;SDS011;63506;49.346;8.798;2024-02-21T03:14:32;8.40;;;2.63;;
74941;SDS011;63506;49.346;8.798;2024-02-21T03:17:16;8.07;;;3.92;;
74941;SDS011;63506;49.346;8.798;2024-02-21T03:20:01;10.18;;;3.05;;
74941;SDS011;63506;49.346;8.798;2024-02-21T03:22:46;11.40;;;2.95;;
74941;SDS011;63506;49.346;8.798;2024-02-21T03:25:30;7.75;;;3.25;;
74941;SDS011;63506;49.346;8.798;2024-02-21T03:28:17;15.75;;;4.13;;
74941;SDS011;63506;49.346;8.798;2024-02-21T03:31:04;8.52;;;2.47;;
74941;SDS011;63506;49.346;8.798;2024-02-21T03:33:48;7.47;;;3.45;;
74941;SDS011;63506;49.346;8.798;2024-02-21T03:36:34;6.38;;;2.88;;
74941;SDS011;63506;49.346;8.798;2024-02-21T03:39:24;12.05;;;3.10;;
74941;SDS011;63506;49.346;8.798;2024-02-21T03:42:10;8.85;;;3.10;;
74941;SDS011;63506;49.346;8.798;2024-02-21T03:44:57;6.68;;;2.92;;
74941;SDS011;63506;49.346;8.798;2024-02-21T03:50:35;6.35;;;2.90;;
74941;SDS011;63506;49.346;8.798;2024-02-21T03:53:19;9.32;;;3.13;;
74941;SDS011;63506;49.346;8.798;2024-02-21T03:56:05;5.13;;;2.55;;
74941;SDS011;63506;49.346;8.798;2024-02-21T03:58:50;6.45;;;2.60;;
74941;SDS011;63506;49.346;8.798;2024-02-21T04:01:34;9.48;;;3.10;;
74941;SDS011;63506;49.346;8.798;2024-02-21T04:04:19;8.80;;;2.58;;
74941;SDS011;63506;49.346;8.798;2024-02-21T04:07:09;10.85;;;3.00;;
74941;SDS011;63506;49.346;8.798;2024-02-21T04:09:53;4.40;;;2.55;;
74941;SDS011;63506;49.346;8.798;2024-02-21T04:12:42;5.22;;;2.90;;
74941;SDS011;63506;49.346;8.798;2024-02-21T04:15:28;5.50;;;2.38;;
74941;SDS011;63506;49.346;8.798;2024-02-21T04:18:15;12.85;;;3.33;;
74941;SDS011;63506;49.346;8.798;2024-02-21T04:20:59;7.57;;;2.50;;
74941;SDS011;63506;49.346;8.798;2024-02-21T04:23:46;7.28;;;3.10;;
74941;SDS011;63506;49.346;8.798;2024-02-21T04:26:38;7.18;;;2.75;;
74941;SDS011;63506;49.346;8.798;2024-02-21T04:29:24;13.25;;;3.00;;
74941;SDS011;63506;49.346;8.798;2024-02-21T04:32:14;8.13;;;2.80;;
74941;SDS011;63506;49.346;8.798;2024-02-21T04:34:58;9.57;;;3.13;;
74941;SDS011;63506;49.346;8.798;2024-02-21T04:37:42;9.00;;;2.65;;
74941;SDS011;63506;49.346;8.798;2024-02-21T04:40:29;8.10;;;2.60;;
74941;SDS011;63506;49.346;8.798;2024-02-21T04:43:14;5.95;;;2.50;;
74941;SDS011;63506;49.346;8.798;2024-02-21T04:45:58;8.60;;;3.17;;
74941;SDS011;63506;49.346;8.798;2024-02-21T04:48:47;6.32;;;2.50;;
74941;SDS011;63506;49.346;8.798;2024-02-21T04:51:33;3.90;;;2.28;;
74941;SDS011;63506;49.346;8.798;2024-02-21T04:54:18;9.73;;;3.30;;
74941;SDS011;63506;49.346;8.798;2024-02-21T04:57:07;10.45;;;2.78;;
74941;SDS011;63506;49.346;8.798;2024-02-21T04:59:53;5.15;;;2.40;;
74941;SDS011;63506;49.346;8.798;2024-02-21T05:02:43;4.90;;;2.33;;
74941;SDS011;63506;49.346;8.798;2024-02-21T05:05:27;5.35;;;2.35;;
74941;SDS011;63506;49.346;8.798;2024-02-21T05:08:13;9.48;;;2.92;;
74941;SDS011;63506;49.346;8.798;2024-02-21T05:10:58;10.32;;;2.45;;
74941;SDS011;63506;49.346;8.798;2024-02-21T05:13:47;11.43;;;2.92;;
74941;SDS011;63506;49.346;8.798;2024-02-21T05:16:33;6.22;;;2.70;;
74941;SDS011;63506;49.346;8.798;2024-02-21T05:19:18;5.22;;;2.67;;
74941;SDS011;63506;49.346;8.798;2024-02-21T05:22:02;9.40;;;2.63;;
74941;SDS011;63506;49.346;8.798;2024-02-21T05:24:46;5.20;;;2.30;;
74941;SDS011;63506;49.346;8.798;2024-02-21T05:27:33;8.65;;;3.20;;
74941;SDS011;63506;49.346;8.798;2024-02-21T05:30:24;5.53;;;3.13;;
74941;SDS011;63506;49.346;8.798;2024-02-21T05:33:08;10.05;;;3.35;;
74941;SDS011;63506;49.346;8.798;2024-02-21T05:35:56;7.13;;;2.55;;
74941;SDS011;63506;49.346;8.798;2024-02-21T05:38:42;7.47;;;2.88;;
74941;SDS011;63506;49.346;8.798;2024-02-21T05:41:31;7.65;;;2.60;;
74941;SDS011;63506;49.346;8.798;2024-02-21T05:44:18;5.57;;;3.10;;
74941;SDS011;63506;49.346;8.798;2024-02-21T05:47:08;8.02;;;2.92;;
74941;SDS011;63506;49.346;8.798;2024-02-21T05:49:59;10.60;;;3.65;;
74941;SDS011;63506;49.346;8.798;2024-02-21T05:52:45;10.05;;;3.60;;
74941;SDS011;63506;49.346;8.798;2024-02-21T05:55:32;7.63;;;3.88;;
74941;SDS011;63506;49.346;8.798;2024-02-21T05:58:18;10.20;;;4.97;;
74941;SDS011;63506;49.346;8.798;2024-02-21T06:01:03;11.13;;;4.25;;
74941;SDS011;63506;49.346;8.798;2024-02-21T06:03:53;6.22;;;3.00;;
74941;SDS011;63506;49.346;8.798;2024-02-21T06:06:41;6.93;;;3.10;;
74941;SDS011;63506;49.346;8.798;2024-02-21T06:09:29;6.43;;;3.13;;
74941;SDS011;63506;49.346;8.798;2024-02-21T06:12:16;6.78;;;3.13;;
74941;SDS011;63506;49.346;8.798;2024-02-21T06:15:00;11.27;;;2.83;;
74941;SDS011;63506;49.346;8.798;2024-02-21T06:17:47;7.95;;;2.63;;
74941;SDS011;63506;49.346;8.798;2024-02-21T06:20:34;8.38;;;3.25;;
74941;SDS011;63506;49.346;8.798;2024-02-21T06:23:21;7.82;;;2.97;;
74941;SDS011;63506;49.346;8.798;2024-02-21T06:26:05;8.05;;;2.80;;
74941;SDS011;63506;49.346;8.798;2024-02-21T06:28:52;7.95;;;2.80;;
74941;SDS011;63506;49.346;8.798;2024-02-21T06:31:36;5.22;;;3.30;;
74941;SDS011;63506;49.346;8.798;2024-02-21T06:34:20;11.75;;;3.47;;
74941;SDS011;63506;49.346;8.798;2024-02-21T06:37:08;12.38;;;3.65;;
74941;SDS011;63506;49.346;8.798;2024-02-21T06:39:54;5.30;;;2.97;;
74941;SDS011;63506;49.346;8.798;2024-02-21T06:42:38;9.43;;;3.13;;
74941;SDS011;63506;49.346;8.798;2024-02-21T06:45:22;5.88;;;2.97;;
74941;SDS011;63506;49.346;8.798;2024-02-21T06:48:07;8.55;;;3.50;;
74941;SDS011;63506;49.346;8.798;2024-02-21T06:50:51;6.90;;;3.00;;
74941;SDS011;63506;49.346;8.798;2024-02-21T06:53:38;7.07;;;2.88;;
74941;SDS011;63506;49.346;8.798;2024-02-21T06:56:25;13.23;;;3.28;;
74941;SDS011;63506;49.346;8.798;2024-02-21T06:59:10;7.88;;;3.03;;
74941;SDS011;63506;49.346;8.798;2024-02-21T07:01:58;8.52;;;3.22;;
74941;SDS011;63506;49.346;8.798;2024-02-21T07:04:45;12.38;;;3.05;;
74941;SDS011;63506;49.346;8.798;2024-02-21T07:07:31;5.05;;;2.78;;
74941;SDS011;63506;49.346;8.798;2024-02-21T07:10:21;8.80;;;2.63;;
74941;SDS011;63506;49.346;8.798;2024-02-21T07:13:07;4.65;;;2.75;;
74941;SDS011;63506;49.346;8.798;2024-02-21T07:15:54;5.70;;;2.40;;
74941;SDS011;63506;49.346;8.798;2024-02-21T07:18:40;8.90;;;3.05;;
74941;SDS011;63506;49.346;8.798;2024-02-21T07:21:27;7.15;;;3.05;;
74941;SDS011;63506;49.346;8.798;2024-02-21T07:24:11;6.32;;;2.97;;
74941;SDS011;63506;49.346;8.798;2024-02-21T07:26:58;7.25;;;2.90;;
74941;SDS011;63506;49.346;8.798;2024-02-21T07:29:45;6.82;;;3.22;;
74941;SDS011;63506;49.346;8.798;2024-02-21T07:32:30;7.47;;;3.30;;
74941;SDS011;63506;49.346;8.798;2024-02-21T07:35:14;6.70;;;2.80;;
74941;SDS011;63506;49.346;8.798;2024-02-21T07:37:59;9.20;;;2.65;;
74941;SDS011;63506;49.346;8.798;2024-02-21T07:40:44;7.80;;;2.75;;
74941;SDS011;63506;49.346;8.798;2024-02-21T07:43:31;14.25;;;3.80;;
74941;SDS011;63506;49.346;8.798;2024-02-21T07:46:15;9.43;;;3.20;;
74941;SDS011;63506;49.346;8.798;2024-02-21T07:49:02;6.85;;;3.50;;
74941;SDS011;63506;49.346;8.798;2024-02-21T07:51:46;9.02;;;3.80;;
74941;SDS011;63506;49.346;8.798;2024-02-21T07:54:30;5.18;;;3.58;;
74941;SDS011;63506;49.346;8.798;2024-02-21T07:57:14;7.72;;;3.42;;
74941;SDS011;63506;49.346;8.798;2024-02-21T08:00:02;9.75;;;3.95;;
74941;SDS011;63506;49.346;8.798;2024-02-21T08:02:56;12.80;;;4.13;;
74941;SDS011;63506;49.346;8.798;2024-02-21T08:05:42;11.38;;;4.05;;
74941;SDS011;63506;49.346;8.798;2024-02-21T08:08:26;8.93;;;3.35;;
74941;SDS011;63506;49.346;8.798;2024-02-21T08:11:15;5.57;;;2.88;;
74941;SDS011;63506;49.346;8.798;2024-02-21T08:14:02;6.05;;;2.92;;
74941;SDS011;63506;49.346;8.798;2024-02-21T08:16:51;10.88;;;2.88;;
74941;SDS011;63506;49.346;8.798;2024-02-21T08:19:42;10.55;;;3.00;;
74941;SDS011;63506;49.346;8.798;2024-02-21T08:22:31;5.38;;;2.55;;
74941;SDS011;63506;49.346;8.798;2024-02-21T08:25:16;7.45;;;3.05;;
74941;SDS011;63506;49.346;8.798;2024-02-21T08:28:03;8.93;;;2.78;;
74941;SDS011;63506;49.346;8.798;2024-02-21T08:30:49;6.72;;;2.63;;
74941;SDS011;63506;49.346;8.798;2024-02-21T08:33:38;5.32;;;2.38;;
74941;SDS011;63506;49.346;8.798;2024-02-21T08:36:25;4.95;;;2.53;;
74941;SDS011;63506;49.346;8.798;2024-02-21T08:39:14;9.82;;;2.90;;
74941;SDS011;63506;49.346;8.798;2024-02-21T08:42:01;7.18;;;2.70;;
74941;SDS011;63506;49.346;8.798;2024-02-21T08:44:48;6.60;;;2.75;;
74941;SDS011;63506;49.346;8.798;2024-02-21T08:47:33;8.07;;;3.50;;
74941;SDS011;63506;49.346;8.798;2024-02-21T08:50:24;5.18;;;2.75;;
74941;SDS011;63506;49.346;8.798;2024-02-21T08:53:08;6.55;;;2.63;;
74941;SDS011;63506;49.346;8.798;2024-02-21T08:55:53;5.78;;;2.42;;
74941;SDS011;63506;49.346;8.798;2024-02-21T08:58:40;8.32;;;2.72;;
74941;SDS011;63506;49.346;8.798;2024-02-21T09:01:26;6.53;;;2.70;;
74941;SDS011;63506;49.346;8.798;2024-02-21T09:04:17;9.65;;;2.53;;
74941;SDS011;63506;49.346;8.798;2024-02-21T09:07:04;8.45;;;2.80;;
74941;SDS011;63506;49.346;8.798;2024-02-21T09:09:51;5.57;;;2.38;;
74941;SDS011;63506;49.346;8.798;2024-02-21T09:12:37;9.73;;;3.00;;
74941;SDS011;63506;49.346;8.798;2024-02-21T09:15:24;11.35;;;2.90;;
74941;SDS011;63506;49.346;8.798;2024-02-21T09:18:13;6.25;;;2.33;;
74941;SDS011;63506;49.346;8.798;2024-02-21T09:21:02;8.93;;;2.88;;
74941;SDS011;63506;49.346;8.798;2024-02-21T09:23:54;5.28;;;2.40;;
74941;SDS011;63506;49.346;8.798;2024-02-21T09:26:40;4.90;;;2.45;;
74941;SDS011;63506;49.346;8.798;2024-02-21T09:29:27;7.05;;;2.50;;
74941;SDS011;63506;49.346;8.798;2024-02-21T09:32:15;6.28;;;2.42;;
74941;SDS011;63506;49.346;8.798;2024-02-21T09:35:02;8.32;;;3.05;;
74941;SDS011;63506;49.346;8.798;2024-02-21T09:37:51;7.40;;;2.55;;
74941;SDS011;63506;49.346;8.798;2024-02-21T09:40:44;7.07;;;2.50;;
74941;SDS011;63506;49.346;8.798;2024-02-21T09:43:30;6.88;;;2.45;;
74941;SDS011;63506;49.346;8.798;2024-02-21T09:46:17;4.78;;;2.67;;
74941;SDS011;63506;49.346;8.798;2024-02-21T09:49:04;6.97;;;2.17;;
74941;SDS011;63506;49.346;8.798;2024-02-21T09:51:58;9.70;;;2.55;;
74941;SDS011;63506;49.346;8.798;2024-02-21T09:54:47;4.50;;;2.47;;
74941;SDS011;63506;49.346;8.798;2024-02-21T09:57:36;7.43;;;2.75;;
74941;SDS011;63506;49.346;8.798;2024-02-21T10:00:24;9.30;;;2.78;;
74941;SDS011;63506;49.346;8.798;2024-02-21T10:03:09;6.53;;;2.40;;
74941;SDS011;63506;49.346;8.798;2024-02-21T10:05:59;6.05;;;2.70;;
74941;SDS011;63506;49.346;8.798;2024-02-21T10:08:51;5.88;;;2.17;;
74941;SDS011;63506;49.346;8.798;2024-02-21T10:11:38;5.30;;;2.30;;
74941;SDS011;63506;49.346;8.798;2024-02-21T10:14:25;7.35;;;2.88;;
74941;SDS011;63506;49.346;8.798;2024-02-21T10:17:15;8.05;;;2.40;;
74941;SDS011;63506;49.346;8.798;2024-02-21T10:20:07;6.75;;;2.55;;
74941;SDS011;63506;49.346;8.798;2024-02-21T10:23:00;7.63;;;3.33;;
74941;SDS011;63506;49.346;8.798;2024-02-21T10:25:49;5.88;;;2.15;;
74941;SDS011;63506;49.346;8.798;2024-02-21T10:28:33;5.43;;;2.30;;
74941;SDS011;63506;49.346;8.798;2024-02-21T10:31:25;7.15;;;2.25;;
74941;SDS011;63506;49.346;8.798;2024-02-21T10:34:10;3.65;;;2.00;;
74941;SDS011;63506;49.346;8.798;2024-02-21T10:37:06;5.40;;;2.38;;
74941;SDS011;63506;49.346;8.798;2024-02-21T10:39:53;4.68;;;2.30;;
74941;SDS011;63506;49.346;8.798;2024-02-21T10:42:42;4.03;;;2.13;;
74941;SDS011;63506;49.346;8.798;2024-02-21T10:45:29;7.55;;;2.28;;
74941;SDS011;63506;49.346;8.798;2024-02-21T10:48:19;6.70;;;2.42;;
74941;SDS011;63506;49.346;8.798;2024-02-21T10:51:15;8.02;;;3.25;;
74941;SDS011;63506;49.346;8.798;2024-02-21T10:54:06;9.30;;;3.13;;
74941;SDS011;63506;49.346;8.798;2024-02-21T10:57:10;19.52;;;4.78;;
74941;SDS011;63506;49.346;8.798;2024-02-21T10:59:58;23.25;;;7.20;;
74941;SDS011;63506;49.346;8.798;2024-02-21T11:02:44;11.65;;;3.63;;
74941;SDS011;63506;49.346;8.798;2024-02-21T11:05:31;9.05;;;2.40;;
74941;SDS011;63506;49.346;8.798;2024-02-21T11:08:16;6.38;;;2.13;;
74941;SDS011;63506;49.346;8.798;2024-02-21T11:11:04;10.45;;;2.83;;
74941;SDS011;63506;49.346;8.798;2024-02-21T11:13:51;12.52;;;2.63;;
74941;SDS011;63506;49.346;8.798;2024-02-21T11:16:39;4.57;;;1.70;;
74941;SDS011;63506;49.346;8.798;2024-02-21T11:19:29;9.70;;;2.53;;
74941;SDS011;63506;49.346;8.798;2024-02-21T11:22:19;7.10;;;2.20;;
74941;SDS011;63506;49.346;8.798;2024-02-21T11:25:06;5.82;;;2.40;;
74941;SDS011;63506;49.346;8.798;2024-02-21T11:27:59;8.68;;;2.70;;
74941;SDS011;63506;49.346;8.798;2024-02-21T11:30:44;5.88;;;1.77;;
74941;SDS011;63506;49.346;8.798;2024-02-21T11:36:23;11.27;;;3.30;;
74941;SDS011;63506;49.346;8.798;2024-02-21T11:42:27;10.05;;;2.85;;
74941;SDS011;63506;49.346;8.798;2024-02-21T11:48:01;5.57;;;2.20;;
74941;SDS011;63506;49.346;8.798;2024-02-21T11:50:52;4.30;;;1.67;;
74941;SDS011;63506;49.346;8.798;2024-02-21T11:53:38;3.17;;;1.45;;
74941;SDS011;63506;49.346;8.798;2024-02-21T11:56:26;4.30;;;1.42;;
74941;SDS011;63506;49.346;8.798;2024-02-21T11:59:15;3.42;;;2.20;;
74941;SDS011;63506;49.346;8.798;2024-02-21T12:02:01;2.78;;;1.40;;
74941;SDS011;63506;49.346;8.798;2024-02-21T12:04:49;3.38;;;1.83;;
74941;SDS011;63506;49.346;8.798;2024-02-21T12:07:36;5.18;;;1.67;;
74941;SDS011;63506;49.346;8.798;2024-02-21T12:10:21;5.75;;;2.10;;
74941;SDS011;63506;49.346;8.798;2024-02-21T12:13:06;4.00;;;1.58;;
74941;SDS011;63506;49.346;8.798;2024-02-21T12:15:56;5.45;;;1.50;;
74941;SDS011;63506;49.346;8.798;2024-02-21T12:18:42;3.03;;;1.30;;
74941;SDS011;63506;49.346;8.798;2024-02-21T12:21:32;7.15;;;1.50;;
74941;SDS011;63506;49.346;8.798;2024-02-21T12:24:20;7.03;;;2.15;;
74941;SDS011;63506;49.346;8.798;2024-02-21T12:29:52;3.55;;;1.70;;
74941;SDS011;63506;49.346;8.798;2024-02-21T12:32:38;4.95;;;1.52;;
74941;SDS011;63506;49.346;8.798;2024-02-21T12:35:23;4.25;;;1.58;;
74941;SDS011;63506;49.346;8.798;2024-02-21T12:38:11;4.40;;;1.38;;
74941;SDS011;63506;49.346;8.798;2024-02-21T12:40:56;4.60;;;1.42;;
74941;SDS011;63506;49.346;8.798;2024-02-21T12:43:41;4.30;;;1.50;;
74941;SDS011;63506;49.346;8.798;2024-02-21T12:46:28;5.18;;;1.40;;
74941;SDS011;63506;49.346;8.798;2024-02-21T12:49:19;6.03;;;1.52;;
74941;SDS011;63506;49.346;8.798;2024-02-21T12:52:07;5.63;;;1.23;;
74941;SDS011;63506;49.346;8.798;2024-02-21T12:54:51;6.25;;;1.52;;
74941;SDS011;63506;49.346;8.798;2024-02-21T12:57:39;6.60;;;1.88;;
74941;SDS011;63506;49.346;8.798;2024-02-21T13:00:24;5.10;;;1.40;;
74941;SDS011;63506;49.346;8.798;2024-02-21T13:03:11;6.55;;;1.55;;
74941;SDS011;63506;49.346;8.798;2024-02-21T13:05:58;4.63;;;1.67;;
74941;SDS011;63506;49.346;8.798;2024-02-21T13:08:42;6.20;;;1.38;;
74941;SDS011;63506;49.346;8.798;2024-02-21T13:11:29;4.80;;;1.65;;
74941;SDS011;63506;49.346;8.798;2024-02-21T13:14:18;10.68;;;1.85;;
74941;SDS011;63506;49.346;8.798;2024-02-21T13:17:06;1.67;;;1.20;;
74941;SDS011;63506;49.346;8.798;2024-02-21T13:19:52;5.65;;;1.20;;
74941;SDS011;63506;49.346;8.798;2024-02-21T13:22:42;5.30;;;1.70;;
74941;SDS011;63506;49.346;8.798;2024-02-21T13:25:28;3.45;;;1.25;;
74941;SDS011;63506;49.346;8.798;2024-02-21T13:28:12;9.13;;;1.63;;
74941;SDS011;63506;49.346;8.798;2024-02-21T13:31:02;4.65;;;1.08;;
74941;SDS011;63506;49.346;8.798;2024-02-21T13:33:47;2.78;;;1.00;;
74941;SDS011;63506;49.346;8.798;2024-02-21T13:36:31;4.97;;;1.30;;
74941;SDS011;63506;49.346;8.798;2024-02-21T13:39:18;2.63;;;1.15;;
74941;SDS011;63506;49.346;8.798;2024-02-21T13:42:05;4.80;;;1.40;;
74941;SDS011;63506;49.346;8.798;2024-02-21T13:44:49;4.93;;;1.63;;
74941;SDS011;63506;49.346;8.798;2024-02-21T13:47:38;2.65;;;1.60;;
74941;SDS011;63506;49.346;8.798;2024-02-21T13:50:23;4.30;;;1.48;;
74941;SDS011;63506;49.346;8.798;2024-02-21T13:53:13;3.28;;;1.10;;
74941;SDS011;63506;49.346;8.798;2024-02-21T13:56:02;4.72;;;1.30;;
74941;SDS011;63506;49.346;8.798;2024-02-21T13:58:46;2.85;;;1.08;;
74941;SDS011;63506;49.346;8.798;2024-02-21T14:01:31;1.95;;;0.98;;
74941;SDS011;63506;49.346;8.798;2024-02-21T14:04:16;4.28;;;1.30;;
74941;SDS011;63506;49.346;8.798;2024-02-21T14:07:01;3.22;;;1.00;;
74941;SDS011;63506;49.346;8.798;2024-02-21T14:09:50;4.72;;;0.82;;
74941;SDS011;63506;49.346;8.798;2024-02-21T14:12:42;5.43;;;1.33;;
74941;SDS011;63506;49.346;8.798;2024-02-21T14:15:31;2.65;;;0.93;;
74941;SDS011;63506;49.346;8.798;2024-02-21T14:18:15;3.33;;;1.45;;
74941;SDS011;63506;49.346;8.798;2024-02-21T14:21:04;4.88;;;1.35;;
74941;SDS011;63506;49.346;8.798;2024-02-21T14:26:40;3.35;;;1.02;;
74941;SDS011;63506;49.346;8.798;2024-02-21T14:29:32;5.18;;;1.38;;
74941;SDS011;63506;49.346;8.798;2024-02-21T14:32:17;5.05;;;1.25;;
74941;SDS011;63506;49.346;8.798;2024-02-21T14:35:06;12.73;;;1.40;;
74941;SDS011;63506;49.346;8.798;2024-02-21T14:37:56;2.78;;;1.25;;
74941;SDS011;63506;49.346;8.798;2024-02-21T14:40:42;5.88;;;1.55;;
74941;SDS011;63506;49.346;8.798;2024-02-21T14:43:29;4.47;;;1.42;;
74941;SDS011;63506;49.346;8.798;2024-02-21T14:46:15;4.95;;;2.13;;
74941;SDS011;63506;49.346;8.798;2024-02-21T14:49:02;2.75;;;1.10;;
74941;SDS011;63506;49.346;8.798;2024-02-21T14:51:51;5.88;;;1.50;;
74941;SDS011;63506;49.346;8.798;2024-02-21T14:54:40;8.93;;;1.30;;
74941;SDS011;63506;49.346;8.798;2024-02-21T14:57:32;3.42;;;1.10;;
74941;SDS011;63506;49.346;8.798;2024-02-21T15:00:19;3.50;;;1.20;;
74941;SDS011;63506;49.346;8.798;2024-02-21T15:03:15;2.72;;;1.05;;
74941;SDS011;63506;49.346;8.798;2024-02-21T15:06:02;3.78;;;1.23;;
74941;SDS011;63506;49.346;8.798;2024-02-21T15:08:49;7.05;;;1.45;;
74941;SDS011;63506;49.346;8.798;2024-02-21T15:11:34;4.90;;;1.20;;
74941;SDS011;63506;49.346;8.798;2024-02-21T15:14:20;2.88;;;1.20;;
74941;SDS011;63506;49.346;8.798;2024-02-21T15:17:05;4.03;;;1.08;;
74941;SDS011;63506;49.346;8.798;2024-02-21T15:19:55;5.45;;;1.50;;
74941;SDS011;63506;49.346;8.798;2024-02-21T15:22:41;1.65;;;0.80;;
74941;SDS011;63506;49.346;8.798;2024-02-21T15:25:27;5.45;;;1.35;;
74941;SDS011;63506;49.346;8.798;2024-02-21T15:28:16;5.47;;;1.13;;
74941;SDS011;63506;49.346;8.798;2024-02-21T15:31:08;5.38;;;1.45;;
74941;SDS011;63506;49.346;8.798;2024-02-21T15:33:55;4.03;;;1.20;;
74941;SDS011;63506;49.346;8.798;2024-02-21T15:36:42;4.80;;;0.98;;
74941;SDS011;63506;49.346;8.798;2024-02-21T15:39:27;3.38;;;0.90;;
74941;SDS011;63506;49.346;8.798;2024-02-21T15:42:11;4.20;;;1.38;;
74941;SDS011;63506;49.346;8.798;2024-02-21T15:44:58;5.30;;;1.83;;
74941;SDS011;63506;49.346;8.798;2024-02-21T15:47:50;7.13;;;1.77;;
74941;SDS011;63506;49.346;8.798;2024-02-21T15:50:35;7.65;;;2.83;;
74941;SDS011;63506;49.346;8.798;2024-02-21T15:53:22;8.13;;;3.17;;
74941;SDS011;63506;49.346;8.798;2024-02-21T15:56:09;6.15;;;2.15;;
74941;SDS011;63506;49.346;8.798;2024-02-21T15:58:54;7.00;;;2.85;;
74941;SDS011;63506;49.346;8.798;2024-02-21T16:01:41;5.43;;;3.00;;
74941;SDS011;63506;49.346;8.798;2024-02-21T16:04:28;6.22;;;3.20;;
74941;SDS011;63506;49.346;8.798;2024-02-21T16:07:12;3.65;;;1.83;;
74941;SDS011;63506;49.346;8.798;2024-02-21T16:09:59;4.70;;;1.95;;
74941;SDS011;63506;49.346;8.798;2024-02-21T16:12:43;4.18;;;1.80;;
74941;SDS011;63506;49.346;8.798;2024-02-21T16:15:31;4.70;;;1.80;;
74941;SDS011;63506;49.346;8.798;2024-02-21T16:18:20;5.75;;;1.80;;
74941;SDS011;63506;49.346;8.798;2024-02-21T16:21:05;6.78;;;1.83;;
74941;SDS011;63506;49.346;8.798;2024-02-21T16:23:50;5.18;;;1.63;;
74941;SDS011;63506;49.346;8.798;2024-02-21T16:26:39;4.85;;;1.50;;
74941;SDS011;63506;49.346;8.798;2024-02-21T16:29:26;6.85;;;1.48;;
74941;SDS011;63506;49.346;8.798;2024-02-21T16:32:13;4.60;;;1.50;;
74941;SDS011;63506;49.346;8.798;2024-02-21T16:35:01;4.75;;;1.33;;
74941;SDS011;63506;49.346;8.798;2024-02-21T16:37:48;7.40;;;1.55;;
74941;SDS011;63506;49.346;8.798;2024-02-21T16:40:37;5.63;;;1.52;;
74941;SDS011;63506;49.346;8.798;2024-02-21T16:43:24;4.15;;;1.60;;
74941;SDS011;63506;49.346;8.798;2024-02-21T16:46:15;4.30;;;1.50;;
74941;SDS011;63506;49.346;8.798;2024-02-21T16:49:00;2.90;;;1.27;;
74941;SDS011;63506;49.346;8.798;2024-02-21T16:51:44;5.43;;;1.60;;
74941;SDS011;63506;49.346;8.798;2024-02-21T16:54:33;4.88;;;2.22;;
74941;SDS011;63506;49.346;8.798;2024-02-21T16:57:19;2.75;;;1.38;;
74941;SDS011;63506;49.346;8.798;2024-02-21T17:00:07;4.35;;;1.13;;
74941;SDS011;63506;49.346;8.798;2024-02-21T17:02:54;2.95;;;1.30;;